EGLC

London City Airport

London, United Kingdom
METAR EGLC 210650Z AUTO 09006KT 8000 NCD 12/09 Q1017
Observed Flight Rules
May-21 @ 06:50 UTC (29 minutes ago) Marginal Visual Flight Rules
Wind Visibility Clouds
90° at 6 knots 7,998 meters
  • Clear skies
Temperatures Readings
Current 12°C / 54°F
Dewpoint 9°C / 48°F
Humidity 82%
Altimeter 30.03" Hg
Pressure 1017 hPa
Elevation 5
METAR EGLC 210650Z AUTO 09006KT 8000 NCD 12/09 Q1017
Observed Flight Rules
May-21 @ 06:50 UTC
(29 minutes ago)
MVFR
Wind Visibility
90° at 6 knots 7,998 meters
Clouds
  • Clear skies
Temperature Dewpoint
12°C / 54°F 9°C / 48°F
Humidity Altimeter Pressure
82% 30.03" Hg 1017 hPa